Time;durP1;ratioP1;P1;durP2;ratioP2;P2;SDS_P1;SDS_P2;PMS_P1;PMS_P2;Temp;Humidity;BMP_temperature;BMP_pressure;BME280_temperature;BME280_humidity;BME280_pressure;Samples;Min_cycle;Max_cycle;Signal;HPM_P1;HPM_P2
2022/07/11 00:00:51;;;;;;;10.07;3.20;;;;;;;;;;7734879;23;20016;-58
2022/07/11 00:03:52;;;;;;;6.43;3.20;;;;;;;;;;7748907;23;20020;-54
2022/07/11 00:06:52;;;;;;;6.18;3.25;;;;;;;;;;7732643;23;20027;-57
2022/07/11 00:09:53;;;;;;;5.88;2.97;;;;;;;;;;7736256;23;20012;-58
2022/07/11 00:12:53;;;;;;;5.63;3.10;;;;;;;;;;7738328;23;20017;-57
2022/07/11 00:15:54;;;;;;;7.88;3.20;;;;;;;;;;7743321;23;20085;-59
2022/07/11 00:18:55;;;;;;;6.07;3.10;;;;;;;;;;7737382;23;20035;-54
2022/07/11 00:21:55;;;;;;;6.35;2.95;;;;;;;;;;7737239;23;20024;-52
2022/07/11 00:24:56;;;;;;;6.63;3.30;;;;;;;;;;7735863;23;20016;-59
2022/07/11 00:27:57;;;;;;;5.70;3.30;;;;;;;;;;7737070;23;20027;-51
2022/07/11 00:30:57;;;;;;;5.65;2.97;;;;;;;;;;7736807;23;20103;-49
2022/07/11 00:33:59;;;;;;;6.32;3.38;;;;;;;;;;7735930;23;20016;-54
2022/07/11 00:36:59;;;;;;;8.73;3.60;;;;;;;;;;7734693;23;20030;-54
2022/07/11 00:40:00;;;;;;;8.30;3.33;;;;;;;;;;7737775;23;20016;-58
2022/07/11 00:43:03;;;;;;;7.45;3.38;;;;;;;;;;7735177;23;20024;-49
2022/07/11 00:46:05;;;;;;;6.75;3.22;;;;;;;;;;7734222;23;20020;-48
2022/07/11 00:49:06;;;;;;;8.18;4.05;;;;;;;;;;7729270;23;20135;-53
2022/07/11 00:52:07;;;;;;;9.00;3.85;;;;;;;;;;7726817;23;20348;-54
2022/07/11 00:55:09;;;;;;;7.72;3.38;;;;;;;;;;7727132;23;20099;-49
2022/07/11 00:58:11;;;;;;;6.82;3.22;;;;;;;;;;7728278;23;20020;-57
2022/07/11 01:01:12;;;;;;;6.95;3.30;;;;;;;;;;7743993;23;20090;-49
2022/07/11 01:04:13;;;;;;;7.47;3.63;;;;;;;;;;7744590;23;20016;-53
2022/07/11 01:07:15;;;;;;;8.73;3.75;;;;;;;;;;7742845;23;20474;-57
2022/07/11 01:10:15;;;;;;;7.95;3.35;;;;;;;;;;7744182;23;20087;-52
2022/07/11 01:13:16;;;;;;;6.68;3.20;;;;;;;;;;7745419;23;20023;-58
2022/07/11 01:16:19;;;;;;;7.40;3.45;;;;;;;;;;7743558;23;20087;-58
2022/07/11 01:19:19;;;;;;;8.77;3.50;;;;;;;;;;7745812;23;20095;-56
2022/07/11 01:22:24;;;;;;;8.02;3.33;;;;;;;;;;7745700;23;20020;-57
2022/07/11 01:25:30;;;;;;;6.82;3.00;;;;;;;;;;7746284;23;20047;-57
2022/07/11 01:28:31;;;;;;;8.15;3.35;;;;;;;;;;7744764;23;20024;-58
2022/07/11 01:31:31;;;;;;;6.10;3.40;;;;;;;;;;7741000;23;20103;-55
2022/07/11 01:34:32;;;;;;;8.02;3.55;;;;;;;;;;7743731;23;20517;-54
2022/07/11 01:37:33;;;;;;;6.93;3.33;;;;;;;;;;7740539;23;20458;-52
2022/07/11 01:40:33;;;;;;;9.23;3.90;;;;;;;;;;7741378;23;20099;-55
2022/07/11 01:43:34;;;;;;;7.65;3.35;;;;;;;;;;7739513;23;20027;-57
2022/07/11 01:46:34;;;;;;;9.52;3.78;;;;;;;;;;7744748;23;20085;-59
2022/07/11 01:49:35;;;;;;;6.63;3.38;;;;;;;;;;7744168;23;20027;-53
2022/07/11 01:52:35;;;;;;;7.47;3.42;;;;;;;;;;7740432;23;20062;-54
2022/07/11 01:55:36;;;;;;;6.85;3.90;;;;;;;;;;7740117;23;20022;-59
2022/07/11 01:58:36;;;;;;;6.55;3.33;;;;;;;;;;7736488;23;20118;-58
2022/07/11 02:01:37;;;;;;;6.72;3.22;;;;;;;;;;7739763;23;20016;-59
2022/07/11 02:04:38;;;;;;;10.77;3.72;;;;;;;;;;7740356;23;20016;-57
2022/07/11 02:10:57;;;;;;;7.57;3.40;;;;;;;;;;7735840;23;20022;-56
2022/07/11 02:13:58;;;;;;;8.95;3.30;;;;;;;;;;7740705;23;20016;-51
2022/07/11 02:16:58;;;;;;;7.88;3.38;;;;;;;;;;7737953;23;20070;-58
2022/07/11 02:19:59;;;;;;;8.63;3.20;;;;;;;;;;7737512;23;20016;-55
2022/07/11 02:23:00;;;;;;;7.28;3.60;;;;;;;;;;7740777;23;20103;-56
2022/07/11 02:26:01;;;;;;;7.15;3.28;;;;;;;;;;7739046;23;20040;-55
2022/07/11 02:29:01;;;;;;;6.05;3.15;;;;;;;;;;7740208;23;20103;-52
2022/07/11 02:32:03;;;;;;;7.55;3.72;;;;;;;;;;7738958;23;20012;-58
2022/07/11 02:35:04;;;;;;;6.73;3.13;;;;;;;;;;7739215;23;20344;-55
2022/07/11 02:38:05;;;;;;;7.18;3.25;;;;;;;;;;7739715;23;20028;-56
2022/07/11 02:41:05;;;;;;;7.43;3.75;;;;;;;;;;7738826;23;20016;-57
2022/07/11 02:44:07;;;;;;;8.77;3.55;;;;;;;;;;7739240;23;20020;-58
2022/07/11 02:47:07;;;;;;;7.22;3.28;;;;;;;;;;7739193;23;20794;-57
2022/07/11 02:50:12;;;;;;;9.07;3.58;;;;;;;;;;7737346;23;20127;-58
2022/07/11 02:53:14;;;;;;;6.95;3.10;;;;;;;;;;7748815;23;20062;-52
2022/07/11 02:56:14;;;;;;;6.28;3.28;;;;;;;;;;7713464;23;20745;-58
2022/07/11 02:59:15;;;;;;;11.23;3.15;;;;;;;;;;7737683;23;20030;-54
2022/07/11 03:02:16;;;;;;;8.95;3.15;;;;;;;;;;7737505;23;20020;-53
2022/07/11 03:05:16;;;;;;;5.70;2.97;;;;;;;;;;7735001;23;20043;-54
2022/07/11 03:08:17;;;;;;;6.32;3.03;;;;;;;;;;7739010;23;20395;-53
2022/07/11 03:11:19;;;;;;;6.75;2.95;;;;;;;;;;7738710;23;20466;-58
2022/07/11 03:14:20;;;;;;;8.10;2.90;;;;;;;;;;7740178;23;20016;-59
2022/07/11 03:17:20;;;;;;;7.22;3.38;;;;;;;;;;7741379;23;20435;-56
2022/07/11 03:20:21;;;;;;;6.82;3.00;;;;;;;;;;7736154;23;20588;-55
2022/07/11 03:23:22;;;;;;;7.78;3.65;;;;;;;;;;7738184;23;20051;-57
2022/07/11 03:26:26;;;;;;;9.20;3.88;;;;;;;;;;7737035;23;20042;-51
2022/07/11 03:29:26;;;;;;;8.25;3.47;;;;;;;;;;7739196;23;20101;-57
2022/07/11 03:32:27;;;;;;;11.45;4.05;;;;;;;;;;7739780;23;20504;-53
2022/07/11 03:35:42;;;;;;;6.45;3.83;;;;;;;;;;7740885;23;20091;-54
2022/07/11 03:38:43;;;;;;;8.73;4.13;;;;;;;;;;7738168;23;20044;-52
2022/07/11 03:41:43;;;;;;;7.95;3.83;;;;;;;;;;7738608;23;20527;-54
2022/07/11 03:44:44;;;;;;;9.88;4.28;;;;;;;;;;7739911;23;20027;-52
2022/07/11 03:47:44;;;;;;;8.93;3.58;;;;;;;;;;7744058;23;20055;-56
2022/07/11 03:50:46;;;;;;;13.50;3.93;;;;;;;;;;7744242;23;20036;-51
2022/07/11 03:53:47;;;;;;;8.85;3.78;;;;;;;;;;7740087;23;20456;-59
2022/07/11 03:56:47;;;;;;;8.70;3.78;;;;;;;;;;7738148;23;20017;-57
2022/07/11 03:59:48;;;;;;;5.75;3.53;;;;;;;;;;7738839;23;20091;-52
2022/07/11 04:02:49;;;;;;;8.60;4.07;;;;;;;;;;7739354;23;20046;-58
2022/07/11 04:05:49;;;;;;;8.73;3.72;;;;;;;;;;7738588;23;20391;-53
2022/07/11 04:08:50;;;;;;;8.90;3.78;;;;;;;;;;7739462;23;20235;-56
2022/07/11 04:11:50;;;;;;;8.38;3.65;;;;;;;;;;7738338;23;20095;-54
2022/07/11 04:14:51;;;;;;;9.20;3.83;;;;;;;;;;7738439;23;20028;-49
2022/07/11 04:17:51;;;;;;;7.53;4.00;;;;;;;;;;7733914;23;20096;-53
2022/07/11 04:20:52;;;;;;;8.00;4.18;;;;;;;;;;7737246;23;20023;-54
2022/07/11 04:23:52;;;;;;;7.80;3.72;;;;;;;;;;7740197;23;20103;-52
2022/07/11 04:26:53;;;;;;;8.32;4.10;;;;;;;;;;7739264;23;20020;-55
2022/07/11 04:29:54;;;;;;;7.35;3.72;;;;;;;;;;7738197;23;20430;-55
2022/07/11 04:32:55;;;;;;;11.80;4.55;;;;;;;;;;7736495;23;20031;-58
2022/07/11 04:35:56;;;;;;;8.60;3.90;;;;;;;;;;7738777;23;20052;-61
2022/07/11 04:38:57;;;;;;;9.23;4.10;;;;;;;;;;7737430;23;20046;-55
2022/07/11 04:41:58;;;;;;;9.75;4.30;;;;;;;;;;7742144;23;20027;-49
2022/07/11 04:44:59;;;;;;;12.60;4.70;;;;;;;;;;7739804;23;20055;-53
2022/07/11 04:48:01;;;;;;;10.07;4.30;;;;;;;;;;7677188;23;1341667;-57
2022/07/11 04:51:01;;;;;;;;;;;;;;;;;;7740188;23;20012;-55
2022/07/11 04:54:02;;;;;;;12.00;4.35;;;;;;;;;;7737752;23;20341;-52
2022/07/11 04:57:03;;;;;;;12.50;6.20;;;;;;;;;;7739922;23;20831;-54
2022/07/11 05:00:05;;;;;;;11.13;4.38;;;;;;;;;;7738062;23;20016;-58
2022/07/11 05:03:06;;;;;;;12.05;4.30;;;;;;;;;;7742654;23;20016;-54
2022/07/11 05:06:06;;;;;;;11.25;4.45;;;;;;;;;;7744657;23;20027;-57
2022/07/11 05:09:07;;;;;;;9.30;5.55;;;;;;;;;;7745125;23;20024;-60
2022/07/11 05:12:08;;;;;;;9.48;4.65;;;;;;;;;;7745531;23;20463;-55
2022/07/11 05:15:09;;;;;;;11.52;4.13;;;;;;;;;;7743770;23;20497;-57
2022/07/11 05:18:10;;;;;;;13.27;5.80;;;;;;;;;;7741625;23;20106;-53
2022/07/11 05:21:11;;;;;;;14.82;5.43;;;;;;;;;;7742089;23;20487;-58
2022/07/11 05:24:12;;;;;;;12.55;4.68;;;;;;;;;;7741413;23;20019;-58
2022/07/11 05:27:12;;;;;;;11.70;4.63;;;;;;;;;;7739221;23;20039;-55
2022/07/11 05:30:13;;;;;;;10.85;4.00;;;;;;;;;;7739200;23;20013;-53
2022/07/11 05:33:14;;;;;;;9.35;4.45;;;;;;;;;;7741048;23;20023;-56
2022/07/11 05:36:14;;;;;;;13.25;5.05;;;;;;;;;;7739663;23;20067;-51
2022/07/11 05:39:15;;;;;;;12.48;4.32;;;;;;;;;;7741787;23;20020;-53
2022/07/11 05:42:15;;;;;;;12.45;4.65;;;;;;;;;;7744978;23;20067;-57
2022/07/11 05:45:16;;;;;;;12.05;4.78;;;;;;;;;;7744953;23;20459;-56
2022/07/11 05:48:16;;;;;;;11.60;6.18;;;;;;;;;;7742260;23;20038;-58
2022/07/11 05:51:18;;;;;;;11.05;4.68;;;;;;;;;;7740706;23;20027;-60
2022/07/11 05:54:19;;;;;;;8.95;4.43;;;;;;;;;;7737491;23;20024;-52
2022/07/11 05:57:19;;;;;;;10.68;4.55;;;;;;;;;;7739807;23;20099;-59
2022/07/11 06:00:22;;;;;;;9.48;4.28;;;;;;;;;;7741169;23;20491;-58
2022/07/11 06:03:23;;;;;;;9.63;4.32;;;;;;;;;;7741587;23;20062;-58
2022/07/11 06:06:23;;;;;;;13.82;4.63;;;;;;;;;;7742520;23;20131;-58
2022/07/11 06:09:24;;;;;;;11.13;4.75;;;;;;;;;;7744247;23;20012;-58
2022/07/11 06:12:24;;;;;;;8.57;4.35;;;;;;;;;;7745989;23;20030;-58
2022/07/11 06:15:25;;;;;;;11.50;5.07;;;;;;;;;;7745573;23;20024;-55
2022/07/11 06:18:26;;;;;;;9.40;3.90;;;;;;;;;;7755475;23;20484;-53
2022/07/11 06:21:27;;;;;;;9.93;4.22;;;;;;;;;;7742532;23;20101;-58
2022/07/11 06:24:28;;;;;;;9.63;3.60;;;;;;;;;;7740833;23;20552;-54
2022/07/11 06:27:29;;;;;;;7.87;3.90;;;;;;;;;;7737762;23;20018;-59
2022/07/11 06:30:30;;;;;;;12.07;4.35;;;;;;;;;;7739053;23;20012;-58
2022/07/11 06:33:31;;;;;;;9.07;3.88;;;;;;;;;;7741127;23;20024;-56
2022/07/11 06:36:32;;;;;;;7.80;3.70;;;;;;;;;;7742527;23;20456;-59
2022/07/11 06:39:32;;;;;;;14.43;5.10;;;;;;;;;;7740526;23;20012;-58
2022/07/11 06:42:33;;;;;;;10.65;3.80;;;;;;;;;;7739258;23;20103;-59
2022/07/11 06:45:33;;;;;;;8.95;3.28;;;;;;;;;;7742861;23;20043;-59
2022/07/11 06:48:35;;;;;;;7.82;3.13;;;;;;;;;;7738416;23;20028;-57
2022/07/11 06:51:35;;;;;;;9.90;3.30;;;;;;;;;;7745578;23;20428;-55
2022/07/11 06:54:36;;;;;;;12.07;3.58;;;;;;;;;;7714356;23;20022;-55
2022/07/11 06:57:37;;;;;;;10.07;3.38;;;;;;;;;;7739556;23;20586;-59
2022/07/11 07:00:37;;;;;;;7.40;2.80;;;;;;;;;;7739201;23;20342;-57
2022/07/11 07:03:38;;;;;;;11.80;3.53;;;;;;;;;;7735529;23;20023;-56
2022/07/11 07:06:39;;;;;;;9.68;3.55;;;;;;;;;;7732943;23;20488;-58
2022/07/11 07:09:41;;;;;;;8.00;2.90;;;;;;;;;;7739400;23;20043;-60
2022/07/11 07:12:41;;;;;;;9.43;2.90;;;;;;;;;;7737345;23;20320;-55
2022/07/11 07:15:42;;;;;;;8.48;2.90;;;;;;;;;;7736091;23;20067;-61
2022/07/11 07:18:45;;;;;;;8.02;2.80;;;;;;;;;;7736677;23;20016;-55
2022/07/11 07:21:46;;;;;;;8.43;2.53;;;;;;;;;;7740300;23;20159;-59
2022/07/11 07:24:46;;;;;;;8.75;3.53;;;;;;;;;;7738384;23;20436;-57
2022/07/11 07:27:47;;;;;;;7.50;2.67;;;;;;;;;;7737275;23;20012;-59
2022/07/11 07:30:47;;;;;;;7.97;2.50;;;;;;;;;;7741715;23;20164;-61
2022/07/11 07:33:48;;;;;;;6.05;2.40;;;;;;;;;;7743558;23;20026;-55
2022/07/11 07:36:48;;;;;;;9.80;2.25;;;;;;;;;;7741876;23;20083;-60
2022/07/11 07:39:49;;;;;;;7.30;2.75;;;;;;;;;;7744016;23;20386;-55
2022/07/11 07:42:50;;;;;;;12.88;2.88;;;;;;;;;;7744524;23;20051;-59
2022/07/11 07:45:50;;;;;;;4.35;2.10;;;;;;;;;;7743878;23;20098;-57
2022/07/11 07:48:51;;;;;;;8.43;2.50;;;;;;;;;;7743936;23;20403;-60
2022/07/11 07:51:51;;;;;;;9.57;2.45;;;;;;;;;;7743653;23;20044;-59
2022/07/11 07:54:52;;;;;;;9.00;2.53;;;;;;;;;;7753573;23;20087;-61
2022/07/11 07:57:52;;;;;;;7.55;2.20;;;;;;;;;;7741903;23;20020;-57
2022/07/11 08:04:13;;;;;;;5.65;2.05;;;;;;;;;;7744448;23;20091;-53
2022/07/11 08:07:13;;;;;;;6.63;1.90;;;;;;;;;;7743412;23;20434;-57
2022/07/11 08:10:14;;;;;;;6.07;2.05;;;;;;;;;;7743937;23;20027;-60
2022/07/11 08:13:15;;;;;;;4.03;1.75;;;;;;;;;;7743933;23;20517;-58
2022/07/11 08:16:15;;;;;;;7.22;1.90;;;;;;;;;;7742278;23;20138;-61
2022/07/11 08:19:16;;;;;;;6.05;1.77;;;;;;;;;;7742866;23;20458;-59
2022/07/11 08:22:17;;;;;;;7.28;1.77;;;;;;;;;;7740844;23;20023;-60
2022/07/11 08:25:17;;;;;;;6.15;1.75;;;;;;;;;;7743324;23;20474;-55
2022/07/11 08:28:18;;;;;;;9.23;2.22;;;;;;;;;;7743133;23;20027;-58
2022/07/11 08:31:19;;;;;;;7.78;2.42;;;;;;;;;;7746352;23;20534;-59
2022/07/11 08:34:19;;;;;;;6.93;2.63;;;;;;;;;;7742491;23;20344;-57
2022/07/11 08:37:20;;;;;;;6.93;2.40;;;;;;;;;;7740859;23;20095;-60
2022/07/11 08:40:20;;;;;;;6.15;2.47;;;;;;;;;;7739883;23;20024;-54
2022/07/11 08:43:26;;;;;;;6.32;2.40;;;;;;;;;;7740563;23;20103;-58
2022/07/11 08:46:28;;;;;;;7.57;2.55;;;;;;;;;;7738837;23;20090;-54
2022/07/11 08:49:31;;;;;;;6.70;2.55;;;;;;;;;;7741434;23;20058;-57
2022/07/11 08:52:32;;;;;;;13.45;3.15;;;;;;;;;;7741796;23;20029;-55
2022/07/11 08:55:33;;;;;;;7.47;2.15;;;;;;;;;;7740593;23;20028;-56
2022/07/11 08:58:34;;;;;;;10.30;2.83;;;;;;;;;;7744351;23;20020;-60
2022/07/11 09:01:35;;;;;;;8.80;3.05;;;;;;;;;;7744890;23;20055;-57
2022/07/11 09:04:37;;;;;;;9.50;2.80;;;;;;;;;;7743608;23;20031;-55
2022/07/11 09:07:46;;;;;;;10.95;2.63;;;;;;;;;;7742487;23;20138;-58
2022/07/11 09:10:47;;;;;;;9.93;2.63;;;;;;;;;;7750625;23;20404;-55
2022/07/11 09:13:48;;;;;;;7.00;2.50;;;;;;;;;;7727605;23;20034;-55
2022/07/11 09:16:56;;;;;;;7.83;2.27;;;;;;;;;;7729000;23;20532;-53
2022/07/11 09:19:56;;;;;;;5.28;1.83;;;;;;;;;;7727132;23;20031;-53
2022/07/11 09:26:16;;;;;;;6.70;2.10;;;;;;;;;;7727633;23;20529;-55
2022/07/11 09:29:20;;;;;;;5.40;1.75;;;;;;;;;;7725961;23;20099;-56
2022/07/11 09:32:25;;;;;;;6.53;2.00;;;;;;;;;;7724595;23;20047;-54
2022/07/11 09:35:37;;;;;;;7.18;1.85;;;;;;;;;;7725902;23;20450;-49
2022/07/11 09:38:55;;;;;;;5.07;1.75;;;;;;;;;;7727313;23;20098;-50
2022/07/11 09:41:57;;;;;;;3.85;1.70;;;;;;;;;;7724665;23;20127;-52
2022/07/11 09:45:10;;;;;;;9.23;1.97;;;;;;;;;;7725351;23;20031;-48
2022/07/11 09:48:13;;;;;;;6.32;1.70;;;;;;;;;;7727873;23;20093;-56
2022/07/11 09:51:19;;;;;;;6.50;1.70;;;;;;;;;;7726625;23;20020;-51
2022/07/11 09:54:20;;;;;;;6.07;1.70;;;;;;;;;;7722919;23;20026;-56
2022/07/11 09:57:38;;;;;;;5.82;2.10;;;;;;;;;;7727436;23;20024;-48
2022/07/11 10:00:39;;;;;;;8.10;1.98;;;;;;;;;;7727808;23;20063;-53
2022/07/11 10:03:39;;;;;;;7.80;1.80;;;;;;;;;;7724988;23;20020;-50
2022/07/11 10:06:40;;;;;;;9.80;2.80;;;;;;;;;;7727574;23;20023;-55
2022/07/11 10:09:40;;;;;;;7.07;2.03;;;;;;;;;;7727179;23;20016;-49
2022/07/11 10:12:43;;;;;;;7.35;1.83;;;;;;;;;;7725646;23;20020;-50
2022/07/11 10:15:44;;;;;;;10.55;1.92;;;;;;;;;;7727801;23;20854;-50
2022/07/11 10:18:50;;;;;;;;;;;;;;;;;;7728523;23;20135;-50
2022/07/11 10:22:06;;;;;;;9.05;1.98;;;;;;;;;;7729474;23;19977;-49
2022/07/11 10:25:07;;;;;;;9.73;1.52;;;;;;;;;;7740600;23;20151;-48
2022/07/11 10:28:35;;;;;;;8.00;1.33;;;;;;;;;;7734798;23;20020;-50
2022/07/11 10:31:36;;;;;;;6.88;1.35;;;;;;;;;;7729643;23;20051;-48
2022/07/11 10:34:39;;;;;;;2.65;1.55;;;;;;;;;;7732354;23;20319;-48
2022/07/11 10:37:51;;;;;;;8.43;1.40;;;;;;;;;;7732547;23;20103;-47
2022/07/11 10:40:53;;;;;;;4.25;2.15;;;;;;;;;;7733182;23;20016;-48
2022/07/11 10:43:57;;;;;;;;;;;;;;;;;;7739836;23;20963;-48
2022/07/11 10:46:57;;;;;;;5.38;1.77;;;;;;;;;;7726575;23;20527;-47
2022/07/11 10:50:02;;;;;;;3.30;1.55;;;;;;;;;;7726562;23;20070;-48
2022/07/11 10:53:08;;;;;;;6.15;1.65;;;;;;;;;;7726934;23;20031;-47
2022/07/11 10:56:33;;;;;;;3.75;1.40;;;;;;;;;;7736305;23;20325;-47
2022/07/11 10:59:34;;;;;;;5.90;1.75;;;;;;;;;;7730542;23;20106;-47
2022/07/11 11:03:01;;;;;;;4.00;1.73;;;;;;;;;;7728768;23;20829;-48
2022/07/11 11:06:01;;;;;;;4.18;1.60;;;;;;;;;;7727172;23;20907;-49
2022/07/11 11:09:02;;;;;;;3.95;1.50;;;;;;;;;;7732990;23;20016;-49
2022/07/11 11:12:02;;;;;;;4.38;1.42;;;;;;;;;;7732162;23;20023;-50
2022/07/11 11:15:42;;;;;;;4.82;1.27;;;;;;;;;;7731985;23;20016;-51
2022/07/11 11:18:43;;;;;;;3.13;1.17;;;;;;;;;;7728378;23;20452;-53
2022/07/11 11:22:01;;;;;;;3.87;1.20;;;;;;;;;;7730631;23;20016;-52
2022/07/11 11:25:02;;;;;;;2.92;1.15;;;;;;;;;;7733093;23;20050;-48
2022/07/11 11:28:04;;;;;;;2.50;1.10;;;;;;;;;;7732259;23;20019;-51
2022/07/11 11:31:05;;;;;;;;;;;;;;;;;;7734529;23;20020;-52
2022/07/11 11:34:06;;;;;;;4.57;1.43;;;;;;;;;;7730884;23;20026;-50
2022/07/11 11:37:07;;;;;;;2.60;1.33;;;;;;;;;;7733035;23;20785;-50
2022/07/11 11:40:08;;;;;;;4.00;1.40;;;;;;;;;;7734173;23;20051;-54
2022/07/11 11:43:18;;;;;;;2.65;1.05;;;;;;;;;;7730417;23;20024;-54
2022/07/11 11:46:22;;;;;;;3.17;1.20;;;;;;;;;;7733867;23;20102;-57
2022/07/11 11:49:23;;;;;;;5.35;1.63;;;;;;;;;;7732792;23;20026;-56
2022/07/11 11:52:24;;;;;;;3.15;1.40;;;;;;;;;;7732260;23;20020;-52
2022/07/11 11:55:24;;;;;;;2.65;0.95;;;;;;;;;;7732067;23;20111;-53
2022/07/11 11:58:25;;;;;;;2.60;1.00;;;;;;;;;;7731321;23;20035;-50
2022/07/11 12:01:28;;;;;;;1.60;0.80;;;;;;;;;;7733872;23;20087;-52
2022/07/11 12:04:33;;;;;;;1.30;0.68;;;;;;;;;;7731201;23;20127;-55
2022/07/11 12:07:33;;;;;;;2.92;1.00;;;;;;;;;;7734573;23;20070;-50
2022/07/11 12:10:34;;;;;;;2.60;1.00;;;;;;;;;;7735170;23;20333;-47
2022/07/11 12:13:35;;;;;;;1.75;0.95;;;;;;;;;;7702454;23;20023;-48
2022/07/11 12:16:46;;;;;;;2.55;1.20;;;;;;;;;;7729556;23;20020;-48
2022/07/11 12:19:46;;;;;;;3.55;1.20;;;;;;;;;;7725972;23;20016;-57
2022/07/11 12:22:47;;;;;;;3.30;1.20;;;;;;;;;;7740675;23;20123;-47
2022/07/11 12:25:50;;;;;;;4.00;1.40;;;;;;;;;;7726636;23;20016;-56
2022/07/11 12:29:18;;;;;;;2.33;1.15;;;;;;;;;;7730405;23;20051;-53
2022/07/11 12:32:22;;;;;;;2.10;1.10;;;;;;;;;;7729882;23;20030;-48
2022/07/11 12:35:22;;;;;;;10.57;1.55;;;;;;;;;;7726729;23;20047;-50
2022/07/11 12:38:23;;;;;;;5.90;1.85;;;;;;;;;;7727022;23;20023;-53
2022/07/11 12:41:24;;;;;;;3.40;2.10;;;;;;;;;;7730220;23;20059;-53
2022/07/11 12:47:49;;;;;;;3.80;1.80;;;;;;;;;;7729668;23;20107;-53
2022/07/11 12:50:50;;;;;;;3.72;1.10;;;;;;;;;;7730660;23;20490;-53
2022/07/11 12:53:58;;;;;;;2.47;1.00;;;;;;;;;;7728260;23;20831;-49
2022/07/11 12:57:03;;;;;;;4.07;1.00;;;;;;;;;;7730078;23;20534;-58
2022/07/11 13:00:15;;;;;;;2.92;0.95;;;;;;;;;;7726313;23;20020;-56
2022/07/11 13:03:30;;;;;;;2.35;1.02;;;;;;;;;;7725783;23;20107;-56
2022/07/11 13:09:50;;;;;;;1.90;0.85;;;;;;;;;;7726903;23;20856;-55
2022/07/11 13:12:53;;;;;;;3.13;1.00;;;;;;;;;;7728223;23;20034;-52
2022/07/11 13:15:54;;;;;;;2.00;0.85;;;;;;;;;;7727668;23;20074;-48
2022/07/11 13:18:55;;;;;;;1.33;0.80;;;;;;;;;;7728266;23;20344;-52
2022/07/11 13:21:55;;;;;;;1.20;0.63;;;;;;;;;;7724320;23;20021;-50
2022/07/11 13:24:56;;;;;;;2.75;0.70;;;;;;;;;;7735161;23;20024;-53
2022/07/11 13:27:56;;;;;;;0.82;0.45;;;;;;;;;;7726778;23;20020;-57
2022/07/11 13:30:57;;;;;;;2.35;0.68;;;;;;;;;;7729014;23;20066;-57
2022/07/11 13:33:58;;;;;;;1.33;0.60;;;;;;;;;;7726597;23;20042;-49
2022/07/11 13:36:58;;;;;;;2.75;0.98;;;;;;;;;;7729440;23;20094;-51
2022/07/11 13:39:59;;;;;;;1.83;0.70;;;;;;;;;;7727616;23;20023;-55
2022/07/11 13:43:01;;;;;;;3.22;0.70;;;;;;;;;;7739460;23;20031;-49
2022/07/11 13:46:02;;;;;;;1.92;0.70;;;;;;;;;;7725964;23;20093;-48
2022/07/11 13:49:02;;;;;;;2.35;0.85;;;;;;;;;;7729170;23;20044;-53
2022/07/11 13:52:03;;;;;;;2.50;0.60;;;;;;;;;;7728352;23;20027;-48
2022/07/11 13:55:04;;;;;;;1.88;0.70;;;;;;;;;;7730307;23;20020;-52
2022/07/11 13:58:23;;;;;;;1.97;0.70;;;;;;;;;;7731908;23;20883;-48
2022/07/11 14:01:24;;;;;;;1.77;0.88;;;;;;;;;;7733054;23;20344;-52
2022/07/11 14:04:25;;;;;;;3.38;0.70;;;;;;;;;;7732073;23;20028;-51
2022/07/11 14:07:26;;;;;;;1.33;0.63;;;;;;;;;;7732507;23;20016;-50
2022/07/11 14:10:26;;;;;;;2.38;1.48;;;;;;;;;;7729298;23;20090;-58
2022/07/11 14:13:27;;;;;;;2.05;0.75;;;;;;;;;;7728225;23;20043;-56
2022/07/11 14:16:28;;;;;;;1.88;0.90;;;;;;;;;;7726200;23;20020;-56
2022/07/11 14:19:31;;;;;;;5.72;0.73;;;;;;;;;;7725393;23;20024;-58
2022/07/11 14:22:31;;;;;;;3.20;0.85;;;;;;;;;;7725040;23;20028;-59
2022/07/11 14:25:32;;;;;;;3.33;0.70;;;;;;;;;;7725428;23;20028;-51
2022/07/11 14:28:33;;;;;;;2.13;1.00;;;;;;;;;;7728701;23;20024;-51
2022/07/11 14:31:33;;;;;;;3.53;1.30;;;;;;;;;;7729920;23;20024;-54
2022/07/11 14:34:34;;;;;;;4.88;1.42;;;;;;;;;;7731204;23;20016;-59
2022/07/11 14:37:37;;;;;;;5.88;1.30;;;;;;;;;;7732285;23;20059;-49
2022/07/11 14:40:38;;;;;;;5.75;1.20;;;;;;;;;;7734493;23;20058;-49
2022/07/11 14:43:39;;;;;;;3.95;1.08;;;;;;;;;;7732382;23;20471;-56
2022/07/11 14:46:41;;;;;;;4.45;1.70;;;;;;;;;;7734170;23;20023;-58
2022/07/11 14:49:42;;;;;;;;;;;;;;;;;;7731880;23;20050;-55
2022/07/11 14:52:44;;;;;;;4.20;2.30;;;;;;;;;;7729365;23;19923;-59
2022/07/11 14:55:45;;;;;;;7.03;1.70;;;;;;;;;;7734135;23;20130;-58
2022/07/11 14:58:45;;;;;;;7.22;4.00;;;;;;;;;;7735437;23;20024;-53
2022/07/11 15:01:46;;;;;;;7.32;4.10;;;;;;;;;;7733133;23;20027;-53
2022/07/11 15:04:46;;;;;;;4.18;1.30;;;;;;;;;;7733849;23;20460;-54
2022/07/11 15:14:25;;;;;;;7.75;1.70;;;;;;;;;;7730911;23;20107;-53
2022/07/11 15:17:26;;;;;;;3.03;1.52;;;;;;;;;;7733585;23;20024;-51
2022/07/11 15:20:26;;;;;;;2.27;1.20;;;;;;;;;;7730223;23;20023;-59
2022/07/11 15:23:27;;;;;;;4.28;1.27;;;;;;;;;;7728031;23;20077;-54
2022/07/11 15:26:28;;;;;;;2.80;0.97;;;;;;;;;;7732025;23;20147;-52
2022/07/11 15:29:28;;;;;;;3.20;1.23;;;;;;;;;;7732272;23;20020;-56
2022/07/11 15:32:30;;;;;;;5.07;1.50;;;;;;;;;;7729453;23;20020;-54
2022/07/11 15:35:30;;;;;;;3.55;1.30;;;;;;;;;;7733824;23;20091;-56
2022/07/11 15:38:31;;;;;;;3.40;1.30;;;;;;;;;;7734875;23;20779;-50
2022/07/11 15:41:31;;;;;;;3.33;1.30;;;;;;;;;;7735658;23;20082;-57
2022/07/11 15:44:32;;;;;;;2.90;1.13;;;;;;;;;;7732992;23;20020;-54
2022/07/11 15:47:33;;;;;;;4.53;1.60;;;;;;;;;;7736418;23;20330;-55
2022/07/11 15:50:34;;;;;;;3.20;1.25;;;;;;;;;;7736593;23;20023;-59
2022/07/11 15:53:34;;;;;;;3.83;1.97;;;;;;;;;;7731157;23;20099;-65
2022/07/11 15:56:35;;;;;;;3.17;1.23;;;;;;;;;;7736710;23;20047;-66
2022/07/11 15:59:36;;;;;;;4.28;1.40;;;;;;;;;;7736187;23;20211;-61
2022/07/11 16:02:36;;;;;;;3.70;1.00;;;;;;;;;;7731597;23;20851;-58
2022/07/11 16:05:37;;;;;;;2.60;1.17;;;;;;;;;;7735648;23;20016;-52
2022/07/11 16:08:39;;;;;;;3.80;1.40;;;;;;;;;;7734608;23;20046;-55
2022/07/11 16:11:39;;;;;;;3.72;1.30;;;;;;;;;;7732104;23;20039;-49
2022/07/11 16:14:41;;;;;;;3.63;1.57;;;;;;;;;;7731999;23;20039;-54
2022/07/11 16:17:43;;;;;;;3.30;1.25;;;;;;;;;;7732056;23;20016;-53
2022/07/11 16:20:43;;;;;;;;;;;;;;;;;;7735959;23;20044;-59
2022/07/11 16:23:45;;;;;;;4.93;1.30;;;;;;;;;;7730802;23;19926;-58
2022/07/11 16:26:45;;;;;;;3.03;1.20;;;;;;;;;;7734212;23;20042;-57
2022/07/11 16:29:46;;;;;;;3.13;1.33;;;;;;;;;;7735341;23;20020;-56
2022/07/11 16:32:46;;;;;;;3.97;1.20;;;;;;;;;;7733035;23;20048;-53
2022/07/11 16:35:48;;;;;;;4.03;1.45;;;;;;;;;;7736768;23;20026;-50
2022/07/11 16:45:28;;;;;;;3.30;1.40;;;;;;;;;;7736247;23;20016;-52
2022/07/11 16:48:33;;;;;;;2.50;1.23;;;;;;;;;;7736181;23;20074;-52
2022/07/11 16:51:34;;;;;;;4.85;1.60;;;;;;;;;;7739485;23;20031;-57
2022/07/11 16:54:36;;;;;;;4.90;1.60;;;;;;;;;;7730890;23;20024;-51
2022/07/11 16:57:37;;;;;;;4.72;1.85;;;;;;;;;;7734594;23;20519;-57
2022/07/11 17:00:39;;;;;;;2.72;1.35;;;;;;;;;;7734940;23;20019;-56
2022/07/11 17:03:39;;;;;;;;;;;;;;;;;;7734081;23;20051;-54
2022/07/11 17:06:40;;;;;;;4.38;1.55;;;;;;;;;;7735339;23;19919;-56
2022/07/11 17:09:41;;;;;;;4.93;1.47;;;;;;;;;;7734592;23;20023;-59
2022/07/11 17:12:41;;;;;;;3.08;1.38;;;;;;;;;;7733622;23;20028;-53
2022/07/11 17:15:42;;;;;;;4.63;1.63;;;;;;;;;;7742656;23;20503;-59
2022/07/11 17:18:43;;;;;;;3.70;1.38;;;;;;;;;;7736905;23;20081;-59
2022/07/11 17:21:44;;;;;;;5.32;1.65;;;;;;;;;;7734461;23;20468;-59
2022/07/11 17:24:44;;;;;;;4.45;1.42;;;;;;;;;;7732747;23;20121;-55
2022/07/11 17:27:45;;;;;;;3.55;1.40;;;;;;;;;;7733959;23;20031;-57
2022/07/11 17:30:49;;;;;;;3.85;1.40;;;;;;;;;;7736030;23;20017;-55
2022/07/11 17:33:49;;;;;;;2.55;1.20;;;;;;;;;;7732799;23;20046;-51
2022/07/11 17:36:50;;;;;;;2.80;1.10;;;;;;;;;;7735365;23;20016;-53
2022/07/11 17:39:51;;;;;;;6.35;1.52;;;;;;;;;;7735305;23;20024;-55
2022/07/11 17:42:51;;;;;;;3.67;1.30;;;;;;;;;;7730657;23;20331;-60
2022/07/11 17:45:52;;;;;;;4.95;1.58;;;;;;;;;;7735075;23;20016;-57
2022/07/11 17:48:52;;;;;;;3.60;1.58;;;;;;;;;;7734178;23;20039;-59
2022/07/11 17:51:53;;;;;;;4.40;1.40;;;;;;;;;;7732970;23;20020;-59
2022/07/11 17:54:53;;;;;;;4.78;1.65;;;;;;;;;;7731501;23;20020;-50
2022/07/11 17:57:54;;;;;;;4.85;1.90;;;;;;;;;;7733983;23;20030;-58
2022/07/11 18:00:55;;;;;;;4.13;1.90;;;;;;;;;;7734112;23;20035;-56
2022/07/11 18:03:55;;;;;;;5.40;2.00;;;;;;;;;;7729125;23;20020;-57
2022/07/11 18:06:56;;;;;;;6.00;1.95;;;;;;;;;;7733434;23;20390;-56
2022/07/11 18:09:56;;;;;;;5.70;1.88;;;;;;;;;;7734136;23;20674;-52
2022/07/11 18:12:57;;;;;;;5.72;2.08;;;;;;;;;;7731368;23;20052;-58
2022/07/11 18:15:58;;;;;;;4.63;2.10;;;;;;;;;;7735190;23;20495;-55
2022/07/11 18:18:58;;;;;;;5.03;1.63;;;;;;;;;;7733702;23;20507;-58
2022/07/11 18:21:59;;;;;;;7.10;1.70;;;;;;;;;;7732086;23;20024;-54
2022/07/11 18:25:03;;;;;;;4.38;1.77;;;;;;;;;;7733527;23;21371;-54
2022/07/11 18:28:04;;;;;;;5.18;1.85;;;;;;;;;;7735618;23;20099;-57
2022/07/11 18:31:04;;;;;;;4.57;2.05;;;;;;;;;;7735200;23;20024;-58
2022/07/11 18:34:05;;;;;;;5.53;2.47;;;;;;;;;;7730790;23;20122;-57
2022/07/11 18:37:05;;;;;;;5.63;1.77;;;;;;;;;;7734420;23;20387;-62
2022/07/11 18:43:26;;;;;;;3.20;1.50;;;;;;;;;;7731718;23;20024;-58